»·PEaware :: DIS1 KSAN-KSMF

DIS1 :: KSAN-KSMF

FLIGHT INFORMATION

Flight Status: Arrived
Operator:
InterSim
More flights by this operator :: More flights under this callsign
Pilot: Jason B. (9845)
Aircraft: BOEING 737-800
(B738)
More flights by this aircraft type
Origin: KSAN San Diego Intl-Lindbergh
United States
Destination: KSMF Sacramento Intl
United States
More flights between these airports :: More routes between these airports
Route: +PADRZ1 EHF NURAY SUUTR2
File this flight plan on PilotEdge
Remarks:
Altitude:
(Current/Filed)
36,000ft
Speed:
(Current/Filed)
0kts
Departed: 03-Dec-17 07:49 PM
Arrived: 03-Dec-17 09:12 PM
Distance/Time
Traveled:
417nm/1:23
Distance/Time
To Go:
Arrived

Flight Plot

Page will automatically refresh every two minutes.

Flight plan parsing failed; only flown route is shown


Map Options




Map Legend


Flown Route
Filed Route
Departure Airport
Arrival Airport
Navaid (VOR, NDB)
Fix

Horizontal Profiles

Position Reports

Time Latitude Longitude Heading Altitude Ground
Speed
03-Dec-17 19:35 32.733144 -117.195662 225 19ft 0kts
03-Dec-17 19:36 32.733144 -117.195662 225 19ft 0kts
03-Dec-17 19:37 32.733144 -117.195662 225 19ft 0kts
03-Dec-17 19:38 32.733144 -117.195662 225 19ft 0kts
03-Dec-17 19:39 32.733144 -117.195662 225 19ft 0kts
03-Dec-17 19:40 32.733144 -117.195662 225 19ft 0kts
03-Dec-17 19:41 32.733144 -117.195662 225 19ft 0kts
03-Dec-17 19:42 32.733144 -117.195662 225 19ft 0kts
03-Dec-17 19:43 32.733144 -117.195662 225 19ft 0kts
03-Dec-17 19:44 32.733499 -117.195301 194 20ft 2kts
03-Dec-17 19:45 32.733950 -117.195543 114 20ft 1kts
03-Dec-17 19:46 32.733980 -117.195650 107 19ft 0kts
03-Dec-17 19:47 32.733980 -117.195650 107 19ft 0kts
03-Dec-17 19:48 32.733868 -117.195228 108 20ft 7kts
03-Dec-17 19:49 32.733170 -117.192286 106 20ft 22kts
03-Dec-17 19:50 32.731746 -117.186573 106 18ft 29kts
03-Dec-17 19:51 32.730365 -117.180798 105 17ft 23kts
03-Dec-17 19:52 32.729557 -117.177453 96 22ft 15kts
03-Dec-17 19:53 32.730450 -117.177004 288 24ft 0kts
03-Dec-17 19:54 32.735756 -117.198420 287 392ft 192kts
03-Dec-17 19:55 32.764033 -117.255859 303 3687ft 239kts
03-Dec-17 19:56 32.804741 -117.321845 311 7714ft 268kts
03-Dec-17 19:57 32.854390 -117.390067 310 11373ft 303kts
03-Dec-17 19:58 32.909232 -117.466758 309 14935ft 310kts
03-Dec-17 19:59 32.965312 -117.545052 309 14965ft 310kts
03-Dec-17 20:00 33.021639 -117.623395 308 18359ft 312kts
03-Dec-17 20:01 33.078027 -117.701731 305 22117ft 319kts
03-Dec-17 20:02 33.128564 -117.771714 303 25111ft 326kts
03-Dec-17 20:03 33.187816 -117.853506 303 28155ft 335kts
03-Dec-17 20:04 33.262040 -117.928653 309 30539ft 361kts
03-Dec-17 20:05 33.338788 -118.003884 308 33113ft 363kts
03-Dec-17 20:06 33.417336 -118.080845 308 35295ft 367kts
03-Dec-17 20:07 33.495913 -118.157919 308 36032ft 381kts
03-Dec-17 20:08 33.578224 -118.236054 316 36009ft 394kts
03-Dec-17 20:09 33.674399 -118.290434 321 36018ft 404kts
03-Dec-17 20:10 33.768705 -118.341991 323 36019ft 406kts
03-Dec-17 20:11 33.865522 -118.390813 323 36019ft 407kts
03-Dec-17 20:12 33.958501 -118.437772 322 36025ft 403kts
03-Dec-17 20:13 34.069048 -118.470246 338 36024ft 435kts
03-Dec-17 20:14 34.168538 -118.485526 337 36016ft 433kts
03-Dec-17 20:15 34.276291 -118.502239 337 36013ft 434kts
03-Dec-17 20:16 34.390095 -118.519883 337 36015ft 433kts
03-Dec-17 20:17 34.506924 -118.537996 337 36015ft 434kts
03-Dec-17 20:18 34.624604 -118.556240 337 36027ft 435kts
03-Dec-17 20:19 34.741926 -118.574424 337 36056ft 434kts
03-Dec-17 20:20 34.859107 -118.592583 337 36116ft 434kts
03-Dec-17 20:21 34.975744 -118.610655 337 36133ft 431kts
03-Dec-17 20:22 35.062241 -118.666813 306 36159ft 368kts
03-Dec-17 20:23 35.137607 -118.743927 307 36168ft 368kts
03-Dec-17 20:24 35.211531 -118.819291 307 36187ft 368kts
03-Dec-17 20:25 35.285545 -118.894721 307 36184ft 369kts
03-Dec-17 20:26 35.357802 -118.968318 308 36181ft 370kts
03-Dec-17 20:27 35.432455 -119.044293 308 36179ft 371kts
03-Dec-17 20:28 35.516059 -119.114369 321 36184ft 398kts
03-Dec-17 20:29 35.615411 -119.168251 321 36178ft 396kts
03-Dec-17 20:30 35.714729 -119.222315 322 36178ft 398kts
03-Dec-17 20:31 35.814981 -119.276881 322 36174ft 397kts
03-Dec-17 20:32 35.914506 -119.331037 322 36179ft 396kts
03-Dec-17 20:33 36.014209 -119.385268 322 36177ft 396kts
03-Dec-17 20:34 36.112363 -119.438655 322 36177ft 396kts
03-Dec-17 20:35 36.203947 -119.488477 322 36175ft 398kts
03-Dec-17 20:36 36.301848 -119.541679 322 36179ft 396kts
03-Dec-17 20:37 36.401006 -119.595585 322 36177ft 396kts
03-Dec-17 20:38 36.500793 -119.649808 322 36176ft 397kts
03-Dec-17 20:39 36.588794 -119.697796 320 36192ft 391kts
03-Dec-17 20:40 36.669078 -119.759201 314 36184ft 381kts
03-Dec-17 20:41 36.733604 -119.810242 314 36186ft 381kts
03-Dec-17 20:42 36.809637 -119.870383 314 36183ft 382kts
03-Dec-17 20:43 36.892089 -119.935528 314 36181ft 383kts
03-Dec-17 20:44 36.969386 -119.996409 313 36156ft 355kts
03-Dec-17 20:45 37.045164 -120.056323 314 35170ft 315kts
03-Dec-17 20:46 37.117705 -120.113767 317 33641ft 328kts
03-Dec-17 20:47 37.175692 -120.159448 318 32406ft 327kts
03-Dec-17 20:48 37.236183 -120.207159 319 31129ft 328kts
03-Dec-17 20:49 37.297441 -120.255631 320 29832ft 329kts
03-Dec-17 20:50 37.359727 -120.305536 321 28510ft 331kts
03-Dec-17 20:51 37.429023 -120.361055 323 27040ft 334kts
03-Dec-17 20:52 37.498244 -120.422195 319 25330ft 337kts
03-Dec-17 20:53 37.568700 -120.493020 320 22827ft 326kts
03-Dec-17 20:54 37.637856 -120.562373 322 20615ft 313kts
03-Dec-17 20:55 37.699514 -120.624234 322 19733ft 316kts
03-Dec-17 20:56 37.747012 -120.671967 322 19203ft 314kts
03-Dec-17 20:57 37.805690 -120.731509 322 19205ft 315kts
03-Dec-17 20:58 37.866205 -120.792975 322 19202ft 315kts
03-Dec-17 20:59 37.931028 -120.858781 322 19208ft 315kts
03-Dec-17 21:00 37.998838 -120.927580 322 19205ft 315kts
03-Dec-17 21:01 38.066370 -120.996056 321 19195ft 315kts
03-Dec-17 21:02 38.120074 -121.071534 312 17366ft 317kts
03-Dec-17 21:03 38.168737 -121.143470 313 15597ft 301kts
03-Dec-17 21:04 38.204289 -121.195977 313 14334ft 265kts
03-Dec-17 21:05 38.247695 -121.260240 313 12782ft 261kts
03-Dec-17 21:06 38.290952 -121.324598 313 11233ft 258kts
03-Dec-17 21:07 38.326996 -121.378208 313 9942ft 256kts
03-Dec-17 21:08 38.368644 -121.440111 313 8452ft 254kts
03-Dec-17 21:09 38.410903 -121.502872 312 6941ft 253kts
03-Dec-17 21:10 38.445969 -121.553375 321 5723ft 247kts
03-Dec-17 21:11 38.483589 -121.593331 318 4551ft 191kts
03-Dec-17 21:12 38.529100 -121.604439 358 3418ft 172kts
03-Dec-17 21:13 38.573328 -121.603430 0 2377ft 150kts
03-Dec-17 21:14 38.610353 -121.602532 359 1493ft 122kts
03-Dec-17 21:15 38.643026 -121.602018 359 860ft 121kts
03-Dec-17 21:16 38.676688 -121.601588 358 237ft 125kts
03-Dec-17 21:17 38.697015 -121.600250 82 28ft 11kts
03-Dec-17 21:18 38.697036 -121.598178 91 28ft 14kts
03-Dec-17 21:19 38.696545 -121.594615 164 28ft 7kts
03-Dec-17 21:20 38.696316 -121.594577 178 28ft 0kts
03-Dec-17 21:21 38.696316 -121.594577 178 28ft 0kts
03-Dec-17 21:22 38.696316 -121.594577 178 28ft 0kts

Navigation Log

Ident Type
Flight plan parsing failed, navigation log unavailable